Aviation Digital Data Service (ADDS)

Output produced by TAFs form (0257 UTC 30 July 2014)
found at http://www.aviationweather.gov/adds/tafs/
 
KRIC 292338Z 3000/3024 02005KT P6SM FEW060 SCT120 
     FM300300 00000KT P6SM SKC 
     FM301400 32004KT P6SM SCT250 
     FM301800 26006KT P6SM SCT050